createdAt,value
2018-07-15T00:01:01.627Z,12.03
2018-07-15T00:03:31.373Z,11.97
2018-07-15T00:06:00.813Z,11.90
2018-07-15T00:08:30.425Z,11.87
2018-07-15T00:11:00.901Z,12.03
2018-07-15T00:13:30.520Z,12.30
2018-07-15T00:16:00.610Z,12.33
2018-07-15T00:18:30.221Z,12.63
2018-07-15T00:20:59.803Z,12.93
2018-07-15T00:23:29.060Z,12.63
2018-07-15T00:25:58.511Z,11.83
2018-07-15T00:28:27.776Z,11.90
2018-07-15T00:30:57.262Z,12.47
2018-07-15T00:33:26.814Z,12.30
2018-07-15T00:35:56.338Z,12.90
2018-07-15T00:38:25.997Z,12.37
2018-07-15T00:41:02.182Z,11.87
2018-07-15T00:43:32.039Z,12.50
2018-07-15T00:46:01.554Z,12.17
2018-07-15T00:48:31.415Z,13.07
2018-07-15T00:51:00.860Z,13.30
2018-07-15T00:53:30.489Z,12.63
2018-07-15T00:56:00.544Z,11.43
2018-07-15T00:58:30.078Z,11.67
2018-07-15T01:01:01.757Z,12.67
2018-07-15T01:03:32.584Z,12.90
2018-07-15T01:06:02.071Z,13.47
2018-07-15T01:08:32.449Z,13.37
2018-07-15T01:11:02.435Z,13.50
2018-07-15T01:13:31.834Z,13.77
2018-07-15T01:16:01.291Z,13.67
2018-07-15T01:18:32.093Z,13.73
2018-07-15T01:21:01.632Z,12.70
2018-07-15T01:23:31.372Z,14.33
2018-07-15T01:26:00.700Z,13.20
2018-07-15T01:28:30.149Z,15.67
2018-07-15T01:30:59.861Z,11.73
2018-07-15T01:33:29.464Z,12.77
2018-07-15T01:35:59.033Z,12.70
2018-07-15T01:38:29.039Z,13.70
2018-07-15T01:40:58.909Z,13.43
2018-07-15T01:43:28.932Z,14.20
2018-07-15T01:45:58.378Z,13.87
2018-07-15T01:48:28.005Z,13.77
2018-07-15T01:50:57.719Z,12.77
2018-07-15T01:53:27.243Z,12.73
2018-07-15T01:55:56.527Z,12.53
2018-07-15T01:58:26.115Z,13.30
2018-07-15T02:00:55.680Z,12.53
2018-07-15T02:03:25.187Z,12.40
2018-07-15T02:05:54.649Z,14.57
2018-07-15T02:08:24.128Z,14.03
2018-07-15T02:10:53.816Z,13.77
2018-07-15T02:13:23.384Z,14.70
2018-07-15T02:15:53.096Z,14.67
2018-07-15T02:18:22.665Z,16.03
2018-07-15T02:20:52.369Z,15.07
2018-07-15T02:23:21.968Z,16.93
2018-07-15T02:25:51.405Z,13.97
2018-07-15T02:28:21.217Z,13.57
2018-07-15T02:30:51.015Z,12.47
2018-07-15T02:33:20.594Z,12.70
2018-07-15T02:35:50.289Z,12.73
2018-07-15T02:38:19.591Z,13.43
2018-07-15T02:40:49.009Z,13.33
2018-07-15T02:43:18.543Z,13.07
2018-07-15T02:45:48.032Z,13.10
2018-07-15T02:48:17.743Z,14.50
2018-07-15T02:50:47.244Z,14.20
2018-07-15T02:53:17.865Z,15.30
2018-07-15T02:55:47.211Z,14.10
2018-07-15T02:58:16.878Z,13.83
2018-07-15T03:00:46.873Z,15.30
2018-07-15T03:03:16.417Z,15.87
2018-07-15T03:05:45.988Z,14.43
2018-07-15T03:08:15.442Z,13.63
2018-07-15T03:10:44.943Z,15.27
2018-07-15T03:13:14.372Z,13.20
2018-07-15T03:15:44.073Z,15.97
2018-07-15T03:18:13.783Z,14.93
2018-07-15T03:20:43.215Z,15.63
2018-07-15T03:23:12.566Z,14.73
2018-07-15T03:25:42.198Z,14.37
2018-07-15T03:28:11.698Z,14.60
2018-07-15T03:30:41.036Z,14.40
2018-07-15T03:33:10.488Z,13.73
2018-07-15T03:35:40.087Z,13.63
2018-07-15T03:38:09.668Z,14.07
2018-07-15T03:40:39.023Z,14.73
2018-07-15T03:43:08.449Z,13.10
2018-07-15T03:45:37.672Z,12.10
2018-07-15T03:48:07.058Z,12.27
2018-07-15T03:50:36.379Z,12.20
2018-07-15T03:53:06.104Z,11.13
2018-07-15T03:55:35.828Z,10.73
2018-07-15T03:58:04.887Z,10.77
2018-07-15T04:00:34.152Z,10.90
2018-07-15T04:03:03.482Z,10.00
2018-07-15T04:05:33.476Z,10.03
2018-07-15T04:08:03.046Z,9.83
2018-07-15T04:10:32.490Z,10.23
2018-07-15T04:13:02.133Z,8.53
2018-07-15T04:15:31.475Z,8.27
2018-07-15T04:18:05.213Z,8.30
2018-07-15T04:20:35.658Z,8.03
2018-07-15T04:23:05.577Z,8.17
2018-07-15T04:25:35.812Z,7.30
2018-07-15T04:28:05.461Z,7.67
2018-07-15T04:30:35.334Z,6.77
2018-07-15T04:33:04.970Z,6.80
2018-07-15T04:35:33.811Z,6.20
2018-07-15T04:38:03.291Z,6.47
2018-07-15T04:40:33.353Z,6.37
2018-07-15T04:43:03.044Z,6.53
2018-07-15T04:45:32.720Z,6.60
2018-07-15T04:48:02.156Z,5.93
2018-07-15T04:50:32.509Z,6.73
2018-07-15T04:53:01.988Z,6.50
2018-07-15T04:55:31.724Z,6.40
2018-07-15T04:58:01.313Z,5.73
2018-07-15T05:00:31.024Z,6.37
2018-07-15T05:03:01.423Z,5.97
2018-07-15T05:05:31.621Z,5.60
2018-07-15T05:08:00.664Z,5.47
2018-07-15T05:10:30.579Z,5.63
2018-07-15T05:13:00.445Z,5.50
2018-07-15T05:15:30.200Z,5.33
2018-07-15T05:17:59.967Z,5.83
2018-07-15T05:20:29.830Z,5.67
2018-07-15T05:22:59.480Z,4.83
2018-07-15T05:25:29.109Z,5.60
2018-07-15T05:27:58.610Z,5.40
2018-07-15T05:30:28.224Z,5.57
2018-07-15T05:32:58.154Z,5.70
2018-07-15T05:35:27.880Z,5.43
2018-07-15T05:37:57.400Z,5.87
2018-07-15T05:40:27.119Z,5.80
2018-07-15T05:42:56.954Z,5.73
2018-07-15T05:45:26.618Z,6.17
2018-07-15T05:47:56.440Z,5.83
2018-07-15T05:50:26.758Z,6.10
2018-07-15T05:52:56.247Z,5.43
2018-07-15T05:55:26.350Z,6.10
2018-07-15T05:57:56.445Z,5.67
2018-07-15T06:00:26.264Z,6.43
2018-07-15T06:02:55.971Z,5.77
2018-07-15T06:05:25.932Z,6.60
2018-07-15T06:07:55.837Z,6.57
2018-07-15T06:10:25.416Z,6.20
2018-07-15T06:12:55.524Z,6.17
2018-07-15T06:15:25.388Z,6.43
2018-07-15T06:17:55.586Z,6.03
2018-07-15T06:20:25.163Z,6.40
2018-07-15T06:22:55.773Z,6.80
2018-07-15T06:25:25.435Z,7.00
2018-07-15T06:27:54.812Z,6.70
2018-07-15T06:30:24.669Z,6.60
2018-07-15T06:32:54.343Z,6.60
2018-07-15T06:35:23.853Z,6.70
2018-07-15T06:37:53.102Z,6.40
2018-07-15T06:40:22.651Z,6.60
2018-07-15T06:42:52.576Z,6.87
2018-07-15T06:45:22.532Z,6.60
2018-07-15T06:47:52.255Z,6.90
2018-07-15T06:50:21.811Z,7.47
2018-07-15T06:52:51.389Z,7.33
2018-07-15T06:55:20.848Z,6.90
2018-07-15T06:57:50.648Z,7.53
2018-07-15T07:00:20.472Z,8.37
2018-07-15T07:02:50.127Z,7.87
2018-07-15T07:05:19.892Z,8.50
2018-07-15T07:07:49.623Z,9.40
2018-07-15T07:10:19.312Z,7.43
2018-07-15T07:12:48.905Z,7.53
2018-07-15T07:15:18.759Z,7.07
2018-07-15T07:17:48.245Z,8.07
2018-07-15T07:20:17.988Z,7.27
2018-07-15T07:22:47.965Z,8.53
2018-07-15T07:25:17.656Z,7.63
2018-07-15T07:27:47.028Z,7.40
2018-07-15T07:30:16.757Z,7.27
2018-07-15T07:32:46.528Z,6.93
2018-07-15T07:35:16.358Z,7.87
2018-07-15T07:37:46.258Z,8.10
2018-07-15T07:40:16.194Z,7.80
2018-07-15T07:42:46.034Z,8.10
2018-07-15T07:45:15.636Z,7.30
2018-07-15T07:47:45.357Z,7.80
2018-07-15T07:50:14.648Z,7.73
2018-07-15T07:52:44.444Z,8.07
2018-07-15T07:55:14.258Z,9.10
2018-07-15T07:57:43.745Z,8.83
2018-07-15T08:00:13.161Z,9.07
2018-07-15T08:02:42.748Z,8.87
2018-07-15T08:05:12.274Z,8.83
2018-07-15T08:07:41.479Z,10.10
2018-07-15T08:10:11.136Z,10.30
2018-07-15T08:12:40.973Z,10.40
2018-07-15T08:15:10.660Z,11.33
2018-07-15T08:17:40.378Z,10.20
2018-07-15T08:20:09.837Z,10.47
2018-07-15T08:22:39.590Z,10.27
2018-07-15T08:25:08.897Z,10.13
2018-07-15T08:27:38.580Z,9.87
2018-07-15T08:30:18.922Z,10.67
2018-07-15T08:32:48.924Z,9.63
2018-07-15T08:35:18.560Z,9.70
2018-07-15T08:37:48.159Z,9.77
2018-07-15T08:40:17.327Z,9.37
2018-07-15T08:42:46.816Z,10.70
2018-07-15T08:45:16.428Z,11.00
2018-07-15T08:47:46.002Z,10.73
2018-07-15T08:50:16.234Z,11.80
2018-07-15T08:52:45.951Z,10.57
2018-07-15T08:55:15.939Z,9.40
2018-07-15T08:57:45.503Z,9.77
2018-07-15T09:00:15.433Z,9.47
2018-07-15T09:02:45.372Z,7.47
2018-07-15T09:05:14.654Z,8.53
2018-07-15T09:07:44.148Z,7.50
2018-07-15T09:10:13.831Z,7.30
2018-07-15T09:12:43.387Z,7.40
2018-07-15T09:15:12.901Z,6.53
2018-07-15T09:17:42.461Z,6.70
2018-07-15T09:20:12.007Z,6.33
2018-07-15T09:22:41.637Z,5.80
2018-07-15T09:25:11.413Z,5.33
2018-07-15T09:27:40.989Z,6.27
2018-07-15T09:30:10.506Z,5.90
2018-07-15T09:32:40.026Z,5.83
2018-07-15T09:35:09.661Z,6.47
2018-07-15T09:37:39.197Z,5.60
2018-07-15T09:40:08.749Z,5.60
2018-07-15T09:42:38.433Z,6.80
2018-07-15T09:45:08.025Z,6.83
2018-07-15T09:47:38.391Z,6.60
2018-07-15T09:50:07.800Z,6.53
2018-07-15T09:52:37.692Z,7.00
2018-07-15T09:55:07.259Z,6.60
2018-07-15T09:57:36.865Z,5.90
2018-07-15T10:00:07.125Z,6.00
2018-07-15T10:02:36.667Z,5.30
2018-07-15T10:05:06.083Z,5.00
2018-07-15T10:07:35.658Z,5.33
2018-07-15T10:10:05.056Z,5.33
2018-07-15T10:12:34.138Z,6.77
2018-07-15T10:15:03.471Z,4.43
2018-07-15T10:17:33.009Z,4.43
2018-07-15T10:20:02.761Z,4.17
2018-07-15T10:22:32.427Z,3.87
2018-07-15T10:25:01.714Z,3.53
2018-07-15T10:27:31.146Z,3.97
2018-07-15T10:30:00.827Z,3.77
2018-07-15T10:32:30.419Z,3.73
2018-07-15T10:35:00.008Z,4.00
2018-07-15T10:37:29.393Z,3.47
2018-07-15T10:39:58.934Z,3.73
2018-07-15T10:42:28.378Z,3.60
2018-07-15T10:44:57.745Z,3.30
2018-07-15T10:47:27.166Z,3.50
2018-07-15T10:49:56.853Z,3.57
2018-07-15T10:52:26.352Z,3.77
2018-07-15T10:54:55.825Z,3.90
2018-07-15T10:57:25.581Z,4.13
2018-07-15T10:59:55.439Z,3.67
2018-07-15T11:02:24.997Z,4.07
2018-07-15T11:04:54.479Z,3.63
2018-07-15T11:07:23.916Z,3.53
2018-07-15T11:09:53.620Z,3.70
2018-07-15T11:12:23.520Z,3.30
2018-07-15T11:14:53.196Z,3.73
2018-07-15T11:17:22.904Z,3.60
2018-07-15T11:19:52.588Z,4.17
2018-07-15T11:22:22.442Z,3.60
2018-07-15T11:24:52.848Z,3.70
2018-07-15T11:27:22.609Z,3.90
2018-07-15T11:29:52.425Z,3.60
2018-07-15T11:32:22.527Z,3.47
2018-07-15T11:34:52.299Z,3.53
2018-07-15T11:37:22.374Z,3.90
2018-07-15T11:39:52.088Z,4.37
2018-07-15T11:42:22.094Z,4.70
2018-07-15T11:44:51.519Z,3.67
2018-07-15T11:47:21.669Z,3.67
2018-07-15T11:49:51.334Z,3.80
2018-07-15T11:52:21.430Z,3.87
2018-07-15T11:54:50.972Z,3.80
2018-07-15T11:57:21.112Z,3.83
2018-07-15T11:59:50.508Z,3.40
2018-07-15T12:02:20.073Z,3.87
2018-07-15T12:04:49.671Z,3.37
2018-07-15T12:07:19.417Z,3.10
2018-07-15T12:09:49.363Z,3.63
2018-07-15T12:12:19.392Z,3.43
2018-07-15T12:14:49.152Z,4.03
2018-07-15T12:17:18.800Z,3.60
2018-07-15T12:19:50.914Z,3.90
2018-07-15T12:22:20.878Z,3.90
2018-07-15T12:24:50.606Z,3.90
2018-07-15T12:27:20.416Z,4.60
2018-07-15T12:29:50.277Z,4.17
2018-07-15T12:32:19.988Z,5.53
2018-07-15T12:34:49.595Z,4.53
2018-07-15T12:37:19.400Z,4.40
2018-07-15T12:39:49.068Z,4.67
2018-07-15T12:42:19.045Z,4.73
2018-07-15T12:44:48.217Z,5.90
2018-07-15T12:47:17.801Z,5.63
2018-07-15T12:49:47.129Z,11.80
2018-07-15T12:52:17.630Z,11.73
2018-07-15T12:54:47.124Z,6.83
2018-07-15T12:57:16.624Z,17.37
2018-07-15T12:59:46.538Z,8.43
2018-07-15T13:02:16.179Z,8.47
2018-07-15T13:04:45.805Z,7.70
2018-07-15T13:07:15.593Z,6.93
2018-07-15T13:09:45.177Z,9.80
2018-07-15T13:12:14.697Z,10.63
2018-07-15T13:14:45.449Z,12.70
2018-07-15T13:17:15.298Z,4.90
2018-07-15T13:19:44.984Z,7.10
2018-07-15T13:22:14.403Z,5.60
2018-07-15T13:24:44.144Z,6.80
2018-07-15T13:27:13.646Z,6.83
2018-07-15T13:29:43.187Z,6.37
2018-07-15T13:32:13.181Z,4.63
2018-07-15T13:34:42.892Z,5.43
2018-07-15T13:37:12.451Z,5.37
2018-07-15T13:39:42.129Z,5.87
2018-07-15T13:42:11.951Z,5.80
2018-07-15T13:44:41.536Z,5.10
2018-07-15T13:47:11.150Z,6.63
2018-07-15T13:49:39.713Z,5.83
2018-07-15T13:52:09.270Z,5.80
2018-07-15T13:54:39.292Z,6.30
2018-07-15T13:57:08.848Z,4.77
2018-07-15T13:59:38.509Z,4.90
2018-07-15T14:02:09.265Z,5.03
2018-07-15T14:04:38.837Z,4.70
2018-07-15T14:07:08.166Z,3.97
2018-07-15T14:09:37.683Z,4.00
2018-07-15T14:12:07.340Z,4.70
2018-07-15T14:14:37.101Z,4.63
2018-07-15T14:17:06.452Z,4.53
2018-07-15T14:19:36.089Z,4.93
2018-07-15T14:22:05.605Z,4.73
2018-07-15T14:24:35.187Z,4.73
2018-07-15T14:27:04.932Z,4.97
2018-07-15T14:29:34.923Z,4.60
2018-07-15T14:32:04.521Z,4.37
2018-07-15T14:34:34.075Z,3.90
2018-07-15T14:37:03.925Z,3.77
2018-07-15T14:39:38.809Z,3.50
2018-07-15T14:42:08.669Z,3.30
2018-07-15T14:44:39.414Z,3.80
2018-07-15T14:47:09.202Z,3.20
2018-07-15T14:49:38.956Z,3.67
2018-07-15T14:52:08.860Z,3.40
2018-07-15T14:54:38.338Z,3.90
2018-07-15T14:57:08.235Z,3.40
2018-07-15T14:59:37.525Z,3.00
2018-07-15T15:02:07.242Z,3.30
2018-07-15T15:04:36.328Z,3.70
2018-07-15T15:07:05.814Z,3.40
2018-07-15T15:09:35.589Z,3.07
2018-07-15T15:12:05.498Z,3.20
2018-07-15T15:14:35.091Z,2.97
2018-07-15T15:17:04.706Z,3.57
2018-07-15T15:19:34.554Z,3.30
2018-07-15T15:22:04.104Z,3.77
2018-07-15T15:24:33.588Z,3.40
2018-07-15T15:27:03.876Z,4.37
2018-07-15T15:29:33.621Z,3.37
2018-07-15T15:32:03.245Z,4.40
2018-07-15T15:34:33.777Z,3.43
2018-07-15T15:37:03.233Z,3.13
2018-07-15T15:39:32.856Z,3.33
2018-07-15T15:42:03.402Z,3.27
2018-07-15T15:44:33.021Z,4.07
2018-07-15T15:47:02.386Z,3.70
2018-07-15T15:49:32.832Z,3.67
2018-07-15T15:52:02.493Z,3.73
2018-07-15T15:54:32.087Z,3.77
2018-07-15T15:57:01.820Z,3.33
2018-07-15T15:59:31.260Z,3.87
2018-07-15T16:02:01.004Z,3.47
2018-07-15T16:04:30.723Z,3.87
2018-07-15T16:07:00.367Z,4.77
2018-07-15T16:09:30.111Z,3.77
2018-07-15T16:11:59.936Z,3.17
2018-07-15T16:14:29.381Z,3.57
2018-07-15T16:16:59.443Z,2.80
2018-07-15T16:19:28.984Z,3.60
2018-07-15T16:21:58.756Z,3.67
2018-07-15T16:24:28.380Z,3.00
2018-07-15T16:26:58.437Z,3.40
2018-07-15T16:29:28.402Z,3.03
2018-07-15T16:31:58.584Z,3.60
2018-07-15T16:34:28.183Z,3.10
2018-07-15T16:36:58.119Z,3.70
2018-07-15T16:39:28.329Z,3.40
2018-07-15T16:41:58.294Z,3.53
2018-07-15T16:44:27.955Z,3.63
2018-07-15T16:46:57.895Z,3.83
2018-07-15T16:49:27.549Z,3.73
2018-07-15T16:51:57.791Z,4.07
2018-07-15T16:54:27.540Z,3.60
2018-07-15T16:56:57.376Z,3.53
2018-07-15T16:59:27.086Z,3.80
2018-07-15T17:01:57.059Z,4.20
2018-07-15T17:04:26.415Z,3.70
2018-07-15T17:06:57.382Z,4.13
2018-07-15T17:09:27.242Z,4.50
2018-07-15T17:11:56.965Z,4.23
2018-07-15T17:14:28.083Z,4.10
2018-07-15T17:16:58.214Z,3.90
2018-07-15T17:19:27.451Z,4.17
2018-07-15T17:21:57.463Z,3.50
2018-07-15T17:24:26.697Z,3.77
2018-07-15T17:26:57.022Z,3.87
2018-07-15T17:29:27.001Z,3.57
2018-07-15T17:31:57.241Z,4.17
2018-07-15T17:34:26.912Z,4.00
2018-07-15T17:36:56.466Z,3.70
2018-07-15T17:39:26.457Z,3.67
2018-07-15T17:41:56.582Z,4.10
2018-07-15T17:44:26.328Z,4.43
2018-07-15T17:46:56.214Z,3.97
2018-07-15T17:49:25.707Z,3.87
2018-07-15T17:51:55.597Z,3.63
2018-07-15T17:54:26.376Z,3.90
2018-07-15T17:56:55.917Z,4.03
2018-07-15T17:59:25.762Z,4.77
2018-07-15T18:01:55.325Z,4.00
2018-07-15T18:04:25.017Z,3.73
2018-07-15T18:06:55.419Z,3.80
2018-07-15T18:09:26.196Z,4.90
2018-07-15T18:11:55.824Z,4.43
2018-07-15T18:14:25.908Z,4.50
2018-07-15T18:16:56.014Z,4.67
2018-07-15T18:19:25.820Z,4.50
2018-07-15T18:21:55.543Z,6.47
2018-07-15T18:24:25.214Z,4.57
2018-07-15T18:26:54.825Z,4.43
2018-07-15T18:29:24.828Z,4.60
2018-07-15T18:31:54.430Z,4.07
2018-07-15T18:34:24.332Z,4.50
2018-07-15T18:36:54.143Z,4.37
2018-07-15T18:39:24.077Z,5.37
2018-07-15T18:41:53.768Z,4.43
2018-07-15T18:44:23.280Z,5.00
2018-07-15T18:46:52.823Z,3.87
2018-07-15T18:49:22.256Z,4.30
2018-07-15T18:51:52.230Z,3.97
2018-07-15T18:54:22.172Z,5.50
2018-07-15T18:59:28.066Z,4.43
2018-07-15T19:01:57.511Z,4.97
2018-07-15T19:04:26.913Z,4.60
2018-07-15T19:06:57.223Z,4.47
2018-07-15T19:09:27.057Z,4.43
2018-07-15T19:11:57.547Z,4.83
2018-07-15T19:14:27.510Z,4.43
2018-07-15T19:16:57.214Z,4.60
2018-07-15T19:19:26.652Z,4.50
2018-07-15T19:21:55.928Z,4.67
2018-07-15T19:24:25.550Z,5.33
2018-07-15T19:27:02.320Z,4.80
2018-07-15T19:29:32.256Z,5.43
2018-07-15T19:32:04.848Z,4.50
2018-07-15T19:34:34.678Z,6.23
2018-07-15T19:37:04.621Z,6.47
2018-07-15T19:39:34.188Z,5.50
2018-07-15T19:42:04.272Z,5.73
2018-07-15T19:44:33.647Z,6.63
2018-07-15T19:47:03.584Z,6.17
2018-07-15T19:49:32.960Z,5.80
2018-07-15T19:52:03.275Z,6.33
2018-07-15T19:54:32.920Z,6.30
2018-07-15T19:57:02.594Z,6.03
2018-07-15T19:59:32.120Z,5.60
2018-07-15T20:02:01.644Z,5.07
2018-07-15T20:04:31.335Z,5.77
2018-07-15T20:07:00.979Z,4.67
2018-07-15T20:09:30.815Z,5.63
2018-07-15T20:12:00.577Z,5.30
2018-07-15T20:14:31.469Z,5.53
2018-07-15T20:17:01.284Z,6.40
2018-07-15T20:19:32.063Z,5.50
2018-07-15T20:22:02.654Z,6.87
2018-07-15T20:24:32.178Z,8.33
2018-07-15T20:27:01.592Z,6.63
2018-07-15T20:29:31.195Z,6.90
2018-07-15T20:32:00.876Z,7.43
2018-07-15T20:34:30.420Z,6.83
2018-07-15T20:37:00.066Z,6.67
2018-07-15T20:39:29.651Z,5.83
2018-07-15T20:41:59.142Z,6.13
2018-07-15T20:44:30.033Z,5.57
2018-07-15T20:46:59.667Z,6.90
2018-07-15T20:49:29.141Z,6.87
2018-07-15T20:51:59.530Z,5.77
2018-07-15T20:54:29.136Z,6.00
2018-07-15T20:56:58.632Z,5.70
2018-07-15T20:59:28.012Z,6.00
2018-07-15T21:01:58.125Z,7.23
2018-07-15T21:04:27.847Z,7.10
2018-07-15T21:06:57.573Z,7.33
2018-07-15T21:09:27.236Z,8.00
2018-07-15T21:11:56.904Z,8.17
2018-07-15T21:14:26.561Z,8.40
2018-07-15T21:16:56.167Z,8.20
2018-07-15T21:19:25.623Z,10.70
2018-07-15T21:21:56.012Z,9.57
2018-07-15T21:24:25.752Z,9.23
2018-07-15T21:26:55.447Z,8.10
2018-07-15T21:29:25.025Z,9.33
2018-07-15T21:31:55.434Z,9.27
2018-07-15T21:34:24.748Z,8.73
2018-07-15T21:36:54.751Z,8.27
2018-07-15T21:39:24.390Z,6.80
2018-07-15T21:41:55.423Z,7.43
2018-07-15T21:44:26.915Z,7.50
2018-07-15T21:46:56.325Z,9.50
2018-07-15T21:49:25.909Z,7.53
2018-07-15T21:51:55.528Z,6.97
2018-07-15T21:54:25.231Z,8.17
2018-07-15T21:56:55.115Z,7.07
2018-07-15T21:59:25.297Z,7.90
2018-07-15T22:01:54.683Z,7.90
2018-07-15T22:04:25.109Z,8.67
2018-07-15T22:07:05.191Z,9.40
2018-07-15T22:09:56.907Z,8.27
2018-07-15T22:12:26.401Z,8.23
2018-07-15T22:14:56.086Z,7.23
2018-07-15T22:17:25.521Z,6.83
2018-07-15T22:19:55.058Z,7.20
2018-07-15T22:22:24.581Z,7.23
2018-07-15T22:24:54.949Z,8.30
2018-07-15T22:27:24.485Z,9.13
2018-07-15T22:29:54.133Z,9.80
2018-07-15T22:32:23.593Z,11.67
2018-07-15T22:34:53.173Z,10.20
2018-07-15T22:37:22.648Z,12.33
2018-07-15T22:39:53.248Z,10.00
2018-07-15T22:42:22.722Z,9.43
2018-07-15T22:44:52.354Z,8.67
2018-07-15T22:47:21.727Z,10.90
2018-07-15T22:49:51.370Z,9.63
2018-07-15T22:52:21.048Z,9.10
2018-07-15T22:54:50.464Z,10.43
2018-07-15T22:57:20.154Z,10.30
2018-07-15T22:59:49.910Z,9.37
2018-07-15T23:02:19.648Z,8.07
2018-07-15T23:06:01.069Z,8.67
2018-07-15T23:08:31.827Z,9.63
2018-07-15T23:11:01.485Z,9.23
2018-07-15T23:13:31.129Z,8.80
2018-07-15T23:16:00.667Z,8.53
2018-07-15T23:18:30.231Z,8.30
2018-07-15T23:21:00.084Z,9.63
2018-07-15T23:23:29.658Z,9.17
2018-07-15T23:25:59.461Z,8.83
2018-07-15T23:28:28.952Z,9.07
2018-07-15T23:30:58.365Z,8.23
2018-07-15T23:33:28.715Z,8.63
2018-07-15T23:35:58.533Z,8.63
2018-07-15T23:38:28.053Z,8.37
2018-07-15T23:40:57.708Z,9.37
2018-07-15T23:43:27.636Z,8.47
2018-07-15T23:45:56.900Z,9.30
2018-07-15T23:48:26.420Z,8.40
2018-07-15T23:50:56.012Z,7.50
2018-07-15T23:53:25.467Z,7.20
2018-07-15T23:55:55.453Z,8.37
2018-07-15T23:58:24.897Z,9.47
